sensor_id;sensor_type;location;lat;lon;timestamp;P1;P2;P0
50866;PMS7003;36839;51.946;21.002;2023-07-24T00:00:38;10.00;10.00;8.00
50866;PMS7003;36839;51.946;21.002;2023-07-24T00:03:28;10.00;10.00;8.00
50866;PMS7003;36839;51.946;21.002;2023-07-24T00:05:58;11.00;11.00;9.00
50866;PMS7003;36839;51.946;21.002;2023-07-24T00:08:29;15.00;13.00;9.00
50866;PMS7003;36839;51.946;21.002;2023-07-24T00:10:58;13.50;10.50;9.50
50866;PMS7003;36839;51.946;21.002;2023-07-24T00:13:26;13.00;11.50;9.00
50866;PMS7003;36839;51.946;21.002;2023-07-24T00:16:06;13.00;10.00;9.00
50866;PMS7003;36839;51.946;21.002;2023-07-24T00:18:34;12.50;11.50;9.00
50866;PMS7003;36839;51.946;21.002;2023-07-24T00:21:02;11.00;10.00;9.50
50866;PMS7003;36839;51.946;21.002;2023-07-24T00:23:31;11.00;10.00;8.00
50866;PMS7003;36839;51.946;21.002;2023-07-24T00:25:59;13.00;11.50;10.00
50866;PMS7003;36839;51.946;21.002;2023-07-24T00:28:29;11.00;11.00;9.00
50866;PMS7003;36839;51.946;21.002;2023-07-24T00:31:00;11.50;11.50;9.00
50866;PMS7003;36839;51.946;21.002;2023-07-24T00:33:36;9.00;9.00;6.00
50866;PMS7003;36839;51.946;21.002;2023-07-24T00:36:15;10.33;10.33;8.67
50866;PMS7003;36839;51.946;21.002;2023-07-24T00:38:43;9.00;9.00;7.00
50866;PMS7003;36839;51.946;21.002;2023-07-24T00:41:15;11.00;11.00;6.00
50866;PMS7003;36839;51.946;21.002;2023-07-24T00:43:43;9.50;9.00;7.50
50866;PMS7003;36839;51.946;21.002;2023-07-24T00:46:11;13.00;10.00;7.00
50866;PMS7003;36839;51.946;21.002;2023-07-24T00:48:48;10.00;9.00;7.00
50866;PMS7003;36839;51.946;21.002;2023-07-24T00:51:28;15.00;10.00;8.00
50866;PMS7003;36839;51.946;21.002;2023-07-24T00:54:01;12.00;11.00;8.00
50866;PMS7003;36839;51.946;21.002;2023-07-24T00:56:42;10.00;9.00;7.00
50866;PMS7003;36839;51.946;21.002;2023-07-24T00:59:10;17.00;13.00;10.00
50866;PMS7003;36839;51.946;21.002;2023-07-24T01:01:45;15.00;9.00;8.00
50866;PMS7003;36839;51.946;21.002;2023-07-24T01:04:15;9.00;9.00;7.00
50866;PMS7003;36839;51.946;21.002;2023-07-24T01:06:46;11.00;11.00;10.00
50866;PMS7003;36839;51.946;21.002;2023-07-24T01:09:29;12.00;10.00;8.00
50866;PMS7003;36839;51.946;21.002;2023-07-24T01:12:04;12.00;12.00;10.00
50866;PMS7003;36839;51.946;21.002;2023-07-24T01:17:48;11.00;10.00;7.50
50866;PMS7003;36839;51.946;21.002;2023-07-24T01:20:21;13.00;11.00;9.00
50866;PMS7003;36839;51.946;21.002;2023-07-24T01:26:10;13.00;13.00;11.00
50866;PMS7003;36839;51.946;21.002;2023-07-24T01:28:39;11.00;8.00;7.00
50866;PMS7003;36839;51.946;21.002;2023-07-24T01:31:13;9.00;9.00;8.00
50866;PMS7003;36839;51.946;21.002;2023-07-24T01:36:09;10.00;10.00;9.00
50866;PMS7003;36839;51.946;21.002;2023-07-24T01:38:38;10.00;10.00;8.00
50866;PMS7003;36839;51.946;21.002;2023-07-24T01:41:12;10.00;10.00;8.00
50866;PMS7003;36839;51.946;21.002;2023-07-24T01:43:40;9.00;9.00;8.00
50866;PMS7003;36839;51.946;21.002;2023-07-24T01:48:38;10.00;9.00;6.00
50866;PMS7003;36839;51.946;21.002;2023-07-24T01:51:10;11.00;10.00;7.00
50866;PMS7003;36839;51.946;21.002;2023-07-24T01:53:37;12.00;9.00;7.00
50866;PMS7003;36839;51.946;21.002;2023-07-24T01:56:10;9.50;8.50;7.00
50866;PMS7003;36839;51.946;21.002;2023-07-24T01:58:38;9.00;9.00;8.00
50866;PMS7003;36839;51.946;21.002;2023-07-24T02:01:06;11.00;10.00;7.00
50866;PMS7003;36839;51.946;21.002;2023-07-24T02:03:34;10.50;10.50;8.50
50866;PMS7003;36839;51.946;21.002;2023-07-24T02:06:05;11.00;11.00;9.00
50866;PMS7003;36839;51.946;21.002;2023-07-24T02:08:35;10.00;10.00;9.00
50866;PMS7003;36839;51.946;21.002;2023-07-24T02:11:03;12.50;10.50;8.50
50866;PMS7003;36839;51.946;21.002;2023-07-24T02:13:34;10.00;10.00;8.00
50866;PMS7003;36839;51.946;21.002;2023-07-24T02:16:02;10.00;9.00;8.00
50866;PMS7003;36839;51.946;21.002;2023-07-24T02:18:34;8.00;8.00;6.00
50866;PMS7003;36839;51.946;21.002;2023-07-24T02:21:03;10.00;9.00;7.00
50866;PMS7003;36839;51.946;21.002;2023-07-24T02:23:35;11.00;9.50;8.00
50866;PMS7003;36839;51.946;21.002;2023-07-24T02:26:04;12.00;12.00;9.00
50866;PMS7003;36839;51.946;21.002;2023-07-24T02:28:32;11.00;8.00;7.00
50866;PMS7003;36839;51.946;21.002;2023-07-24T02:31:02;13.33;10.67;8.33
50866;PMS7003;36839;51.946;21.002;2023-07-24T02:33:30;12.00;10.00;8.00
50866;PMS7003;36839;51.946;21.002;2023-07-24T02:36:14;13.00;12.00;9.50
50866;PMS7003;36839;51.946;21.002;2023-07-24T02:38:46;9.50;9.00;7.00
50866;PMS7003;36839;51.946;21.002;2023-07-24T02:41:15;9.00;8.33;7.33
50866;PMS7003;36839;51.946;21.002;2023-07-24T02:43:52;9.00;9.00;8.00
50866;PMS7003;36839;51.946;21.002;2023-07-24T02:46:21;11.50;10.50;8.00
50866;PMS7003;36839;51.946;21.002;2023-07-24T02:48:57;13.00;11.00;9.00
50866;PMS7003;36839;51.946;21.002;2023-07-24T02:51:27;11.00;9.50;8.50
50866;PMS7003;36839;51.946;21.002;2023-07-24T02:53:56;12.50;11.00;7.00
50866;PMS7003;36839;51.946;21.002;2023-07-24T02:56:35;10.00;10.00;8.00
50866;PMS7003;36839;51.946;21.002;2023-07-24T02:59:07;12.00;11.00;9.00
50866;PMS7003;36839;51.946;21.002;2023-07-24T03:01:37;11.00;11.00;9.00
50866;PMS7003;36839;51.946;21.002;2023-07-24T03:04:06;9.50;9.50;8.50
50866;PMS7003;36839;51.946;21.002;2023-07-24T03:06:41;11.00;10.00;8.00
50866;PMS7003;36839;51.946;21.002;2023-07-24T03:09:15;9.00;9.00;4.00
50866;PMS7003;36839;51.946;21.002;2023-07-24T03:11:42;8.00;8.00;5.00
50866;PMS7003;36839;51.946;21.002;2023-07-24T03:14:12;8.50;8.50;7.00
50866;PMS7003;36839;51.946;21.002;2023-07-24T03:16:51;14.00;11.00;8.00
50866;PMS7003;36839;51.946;21.002;2023-07-24T03:19:23;10.00;8.00;6.00
50866;PMS7003;36839;51.946;21.002;2023-07-24T03:21:52;9.50;9.50;8.50
50866;PMS7003;36839;51.946;21.002;2023-07-24T03:24:21;8.00;8.00;5.50
50866;PMS7003;36839;51.946;21.002;2023-07-24T03:26:50;13.00;11.00;10.00
50866;PMS7003;36839;51.946;21.002;2023-07-24T03:29:22;17.00;8.00;6.00
50866;PMS7003;36839;51.946;21.002;2023-07-24T03:31:50;9.00;9.00;7.00
50866;PMS7003;36839;51.946;21.002;2023-07-24T03:34:27;11.00;9.00;7.00
50866;PMS7003;36839;51.946;21.002;2023-07-24T03:36:55;11.50;10.00;8.50
50866;PMS7003;36839;51.946;21.002;2023-07-24T03:39:23;10.00;9.00;7.00
50866;PMS7003;36839;51.946;21.002;2023-07-24T03:41:52;8.00;8.00;7.00
50866;PMS7003;36839;51.946;21.002;2023-07-24T03:44:22;12.00;11.00;10.00
50866;PMS7003;36839;51.946;21.002;2023-07-24T03:46:52;16.00;10.00;9.00
50866;PMS7003;36839;51.946;21.002;2023-07-24T03:49:27;13.00;12.00;10.00
50866;PMS7003;36839;51.946;21.002;2023-07-24T03:51:59;14.00;9.00;7.00
50866;PMS7003;36839;51.946;21.002;2023-07-24T03:54:27;10.00;10.00;7.50
50866;PMS7003;36839;51.946;21.002;2023-07-24T03:56:54;14.00;10.00;8.50
50866;PMS7003;36839;51.946;21.002;2023-07-24T03:59:22;11.50;10.00;7.50
50866;PMS7003;36839;51.946;21.002;2023-07-24T04:01:56;9.00;9.00;8.00
50866;PMS7003;36839;51.946;21.002;2023-07-24T04:04:26;9.50;8.00;7.00
50866;PMS7003;36839;51.946;21.002;2023-07-24T04:06:57;8.00;8.00;4.00
50866;PMS7003;36839;51.946;21.002;2023-07-24T04:09:26;10.00;10.00;8.00
50866;PMS7003;36839;51.946;21.002;2023-07-24T04:11:56;13.50;11.50;10.50
50866;PMS7003;36839;51.946;21.002;2023-07-24T04:14:24;8.00;8.00;7.00
50866;PMS7003;36839;51.946;21.002;2023-07-24T04:16:53;8.33;8.33;6.00
50866;PMS7003;36839;51.946;21.002;2023-07-24T04:19:35;11.50;9.00;8.00
50866;PMS7003;36839;51.946;21.002;2023-07-24T04:22:03;16.00;11.00;8.50
50866;PMS7003;36839;51.946;21.002;2023-07-24T04:24:34;12.00;9.00;6.00
50866;PMS7003;36839;51.946;21.002;2023-07-24T04:27:02;13.00;11.00;8.00
50866;PMS7003;36839;51.946;21.002;2023-07-24T04:29:31;10.50;9.50;7.00
50866;PMS7003;36839;51.946;21.002;2023-07-24T04:32:00;11.50;11.00;9.00
50866;PMS7003;36839;51.946;21.002;2023-07-24T04:34:32;9.00;9.00;8.00
50866;PMS7003;36839;51.946;21.002;2023-07-24T04:37:00;14.00;11.50;9.00
50866;PMS7003;36839;51.946;21.002;2023-07-24T04:39:29;13.50;10.00;7.00
50866;PMS7003;36839;51.946;21.002;2023-07-24T04:41:59;13.00;10.00;7.00
50866;PMS7003;36839;51.946;21.002;2023-07-24T04:44:29;13.00;10.00;7.00
50866;PMS7003;36839;51.946;21.002;2023-07-24T04:46:56;11.50;10.00;8.00
50866;PMS7003;36839;51.946;21.002;2023-07-24T04:49:37;10.00;10.00;7.00
50866;PMS7003;36839;51.946;21.002;2023-07-24T04:52:07;17.00;12.00;8.33
50866;PMS7003;36839;51.946;21.002;2023-07-24T04:54:44;14.00;11.00;8.00
50866;PMS7003;36839;51.946;21.002;2023-07-24T04:57:14;14.00;11.00;9.00
50866;PMS7003;36839;51.946;21.002;2023-07-24T04:59:52;13.00;10.00;9.00
50866;PMS7003;36839;51.946;21.002;2023-07-24T05:02:27;11.00;10.00;8.00
50866;PMS7003;36839;51.946;21.002;2023-07-24T05:04:56;11.00;9.00;7.00
50866;PMS7003;36839;51.946;21.002;2023-07-24T05:07:27;9.00;9.00;7.00
50866;PMS7003;36839;51.946;21.002;2023-07-24T05:09:56;10.00;8.50;6.00
50866;PMS7003;36839;51.946;21.002;2023-07-24T05:12:27;12.00;10.00;8.00
50866;PMS7003;36839;51.946;21.002;2023-07-24T05:15:03;13.00;11.00;9.00
50866;PMS7003;36839;51.946;21.002;2023-07-24T05:17:33;9.00;8.00;7.50
50866;PMS7003;36839;51.946;21.002;2023-07-24T05:20:05;11.00;8.00;7.00
50866;PMS7003;36839;51.946;21.002;2023-07-24T05:22:34;12.00;9.00;7.00
50866;PMS7003;36839;51.946;21.002;2023-07-24T05:25:04;8.00;8.00;7.00
50866;PMS7003;36839;51.946;21.002;2023-07-24T05:27:38;14.00;11.00;9.50
50866;PMS7003;36839;51.946;21.002;2023-07-24T05:30:07;9.50;9.00;7.50
50866;PMS7003;36839;51.946;21.002;2023-07-24T05:32:35;9.50;9.50;8.50
50866;PMS7003;36839;51.946;21.002;2023-07-24T05:35:05;6.00;6.00;4.00
50866;PMS7003;36839;51.946;21.002;2023-07-24T05:37:35;10.00;8.00;7.00
50866;PMS7003;36839;51.946;21.002;2023-07-24T05:40:03;9.00;9.00;6.00
50866;PMS7003;36839;51.946;21.002;2023-07-24T05:42:35;9.00;9.00;8.00
50866;PMS7003;36839;51.946;21.002;2023-07-24T05:45:11;13.00;10.00;8.00
50866;PMS7003;36839;51.946;21.002;2023-07-24T05:47:44;9.00;9.00;6.50
50866;PMS7003;36839;51.946;21.002;2023-07-24T05:50:13;7.00;7.00;5.00
50866;PMS7003;36839;51.946;21.002;2023-07-24T05:52:41;6.50;6.50;5.00
50866;PMS7003;36839;51.946;21.002;2023-07-24T05:55:10;8.00;7.00;5.00
50866;PMS7003;36839;51.946;21.002;2023-07-24T05:57:41;10.50;9.50;7.00
50866;PMS7003;36839;51.946;21.002;2023-07-24T06:00:14;8.00;7.00;5.67
50866;PMS7003;36839;51.946;21.002;2023-07-24T06:02:41;7.00;7.00;6.00
50866;PMS7003;36839;51.946;21.002;2023-07-24T06:05:11;6.00;6.00;4.00
50866;PMS7003;36839;51.946;21.002;2023-07-24T06:07:42;6.00;6.00;5.50
50866;PMS7003;36839;51.946;21.002;2023-07-24T06:10:09;10.00;10.00;7.00
50866;PMS7003;36839;51.946;21.002;2023-07-24T06:12:38;8.00;8.00;6.00
50866;PMS7003;36839;51.946;21.002;2023-07-24T06:15:06;11.00;11.00;9.00
50866;PMS7003;36839;51.946;21.002;2023-07-24T06:17:34;22.00;18.00;12.00
50866;PMS7003;36839;51.946;21.002;2023-07-24T06:20:02;19.00;17.50;11.50
50866;PMS7003;36839;51.946;21.002;2023-07-24T06:22:33;13.00;11.00;7.00
50866;PMS7003;36839;51.946;21.002;2023-07-24T06:25:03;16.00;11.00;8.00
50866;PMS7003;36839;51.946;21.002;2023-07-24T06:27:32;22.50;17.50;11.50
50866;PMS7003;36839;51.946;21.002;2023-07-24T06:30:05;7.00;7.00;5.67
50866;PMS7003;36839;51.946;21.002;2023-07-24T06:32:37;10.50;10.50;8.00
50866;PMS7003;36839;51.946;21.002;2023-07-24T06:35:04;9.00;7.00;6.00
50866;PMS7003;36839;51.946;21.002;2023-07-24T06:37:40;10.00;6.00;5.00
50866;PMS7003;36839;51.946;21.002;2023-07-24T06:40:08;7.00;6.00;4.00
50866;PMS7003;36839;51.946;21.002;2023-07-24T06:42:38;3.00;3.00;2.00
50866;PMS7003;36839;51.946;21.002;2023-07-24T06:47:36;5.00;5.00;3.00
50866;PMS7003;36839;51.946;21.002;2023-07-24T06:50:03;5.00;5.00;4.00
50866;PMS7003;36839;51.946;21.002;2023-07-24T06:52:40;5.00;5.00;4.00
50866;PMS7003;36839;51.946;21.002;2023-07-24T06:55:08;7.00;6.00;5.00
50866;PMS7003;36839;51.946;21.002;2023-07-24T06:57:35;5.00;5.00;3.50
50866;PMS7003;36839;51.946;21.002;2023-07-24T07:00:05;5.00;5.00;4.00
50866;PMS7003;36839;51.946;21.002;2023-07-24T07:02:38;5.00;5.00;2.50
50866;PMS7003;36839;51.946;21.002;2023-07-24T07:05:09;4.00;4.00;2.00
50866;PMS7003;36839;51.946;21.002;2023-07-24T07:07:39;10.00;7.00;5.00
50866;PMS7003;36839;51.946;21.002;2023-07-24T07:10:07;7.00;7.00;5.00
50866;PMS7003;36839;51.946;21.002;2023-07-24T07:12:35;6.00;5.00;4.00
50866;PMS7003;36839;51.946;21.002;2023-07-24T07:15:02;5.50;4.00;3.50
50866;PMS7003;36839;51.946;21.002;2023-07-24T07:17:35;6.00;5.00;4.00
50866;PMS7003;36839;51.946;21.002;2023-07-24T07:20:03;5.00;5.00;3.00
50866;PMS7003;36839;51.946;21.002;2023-07-24T07:22:32;6.00;6.00;4.00
50866;PMS7003;36839;51.946;21.002;2023-07-24T07:25:01;5.00;4.00;2.00
50866;PMS7003;36839;51.946;21.002;2023-07-24T07:27:34;5.00;5.00;5.00
50866;PMS7003;36839;51.946;21.002;2023-07-24T07:30:02;8.00;6.00;5.00
50866;PMS7003;36839;51.946;21.002;2023-07-24T07:32:44;5.00;5.00;4.00
50866;PMS7003;36839;51.946;21.002;2023-07-24T07:35:14;6.00;4.00;4.00
50866;PMS7003;36839;51.946;21.002;2023-07-24T07:37:41;4.00;4.00;3.00
50866;PMS7003;36839;51.946;21.002;2023-07-24T07:40:13;5.00;5.00;3.00
50866;PMS7003;36839;51.946;21.002;2023-07-24T07:42:41;5.00;4.00;4.00
50866;PMS7003;36839;51.946;21.002;2023-07-24T07:45:11;6.00;5.00;4.00
50866;PMS7003;36839;51.946;21.002;2023-07-24T07:47:40;3.00;3.00;3.00
50866;PMS7003;36839;51.946;21.002;2023-07-24T07:50:08;4.00;3.00;2.00
50866;PMS7003;36839;51.946;21.002;2023-07-24T07:52:50;3.00;3.00;2.00
50866;PMS7003;36839;51.946;21.002;2023-07-24T07:55:21;4.00;4.00;3.00
50866;PMS7003;36839;51.946;21.002;2023-07-24T07:57:58;3.00;3.00;2.00
50866;PMS7003;36839;51.946;21.002;2023-07-24T08:00:28;6.00;5.00;4.00
50866;PMS7003;36839;51.946;21.002;2023-07-24T08:02:56;3.50;3.50;3.00
50866;PMS7003;36839;51.946;21.002;2023-07-24T08:05:37;4.00;3.00;2.00
50866;PMS7003;36839;51.946;21.002;2023-07-24T08:08:07;3.00;3.00;3.00
50866;PMS7003;36839;51.946;21.002;2023-07-24T08:10:39;3.00;3.00;3.00
50866;PMS7003;36839;51.946;21.002;2023-07-24T08:13:08;6.00;3.00;3.00
50866;PMS7003;36839;51.946;21.002;2023-07-24T08:15:36;3.00;3.00;3.00
50866;PMS7003;36839;51.946;21.002;2023-07-24T08:18:08;5.00;4.00;3.00
50866;PMS7003;36839;51.946;21.002;2023-07-24T08:20:36;4.00;4.00;3.00
50866;PMS7003;36839;51.946;21.002;2023-07-24T08:23:06;2.00;2.00;2.00
50866;PMS7003;36839;51.946;21.002;2023-07-24T08:25:34;5.00;4.00;4.00
50866;PMS7003;36839;51.946;21.002;2023-07-24T08:28:02;4.50;2.50;2.50
50866;PMS7003;36839;51.946;21.002;2023-07-24T08:30:31;5.00;3.00;3.00
50866;PMS7003;36839;51.946;21.002;2023-07-24T08:33:00;3.00;3.00;2.00
50866;PMS7003;36839;51.946;21.002;2023-07-24T08:35:27;5.00;4.00;3.00
50866;PMS7003;36839;51.946;21.002;2023-07-24T08:37:55;6.00;4.00;4.00
50866;PMS7003;36839;51.946;21.002;2023-07-24T08:40:23;5.50;3.00;2.00
50866;PMS7003;36839;51.946;21.002;2023-07-24T08:42:52;2.50;2.00;2.00
50866;PMS7003;36839;51.946;21.002;2023-07-24T08:45:28;4.00;4.00;2.00
50866;PMS7003;36839;51.946;21.002;2023-07-24T08:47:59;6.00;5.00;4.00
50866;PMS7003;36839;51.946;21.002;2023-07-24T08:52:55;4.00;3.00;3.00
50866;PMS7003;36839;51.946;21.002;2023-07-24T08:55:25;4.00;4.00;2.00
50866;PMS7003;36839;51.946;21.002;2023-07-24T08:57:54;5.00;5.00;4.00
50866;PMS7003;36839;51.946;21.002;2023-07-24T09:00:21;5.00;4.50;4.00
50866;PMS7003;36839;51.946;21.002;2023-07-24T09:02:49;7.50;4.00;4.00
50866;PMS7003;36839;51.946;21.002;2023-07-24T09:05:16;4.00;4.00;3.00
50866;PMS7003;36839;51.946;21.002;2023-07-24T09:07:50;5.00;5.00;4.00
50866;PMS7003;36839;51.946;21.002;2023-07-24T09:10:23;5.00;5.00;3.00
50866;PMS7003;36839;51.946;21.002;2023-07-24T09:12:53;3.00;3.00;3.00
50866;PMS7003;36839;51.946;21.002;2023-07-24T09:15:22;5.00;5.00;4.00
50866;PMS7003;36839;51.946;21.002;2023-07-24T09:17:56;4.50;4.50;3.50
50866;PMS7003;36839;51.946;21.002;2023-07-24T09:20:23;9.00;6.00;5.00
50866;PMS7003;36839;51.946;21.002;2023-07-24T09:22:53;7.00;5.50;4.00
50866;PMS7003;36839;51.946;21.002;2023-07-24T09:25:41;9.00;6.00;4.50
50866;PMS7003;36839;51.946;21.002;2023-07-24T09:28:14;6.50;5.00;3.50
50866;PMS7003;36839;51.946;21.002;2023-07-24T09:31:03;6.00;4.00;3.50
50866;PMS7003;36839;51.946;21.002;2023-07-24T09:33:34;6.00;5.00;4.00
50866;PMS7003;36839;51.946;21.002;2023-07-24T09:36:08;6.00;5.00;4.33
50866;PMS7003;36839;51.946;21.002;2023-07-24T09:38:36;7.50;6.50;4.50
50866;PMS7003;36839;51.946;21.002;2023-07-24T09:41:05;6.00;5.00;4.00
50866;PMS7003;36839;51.946;21.002;2023-07-24T09:43:34;7.00;7.00;5.00
50866;PMS7003;36839;51.946;21.002;2023-07-24T09:46:09;5.00;5.00;4.00
50866;PMS7003;36839;51.946;21.002;2023-07-24T09:48:39;6.50;6.50;5.00
50866;PMS7003;36839;51.946;21.002;2023-07-24T09:51:06;7.00;6.00;4.00
50866;PMS7003;36839;51.946;21.002;2023-07-24T09:56:30;6.00;6.00;5.00
50866;PMS7003;36839;51.946;21.002;2023-07-24T09:59:02;9.50;7.00;6.00
50866;PMS7003;36839;51.946;21.002;2023-07-24T10:01:36;10.00;6.00;6.00
50866;PMS7003;36839;51.946;21.002;2023-07-24T10:04:09;5.00;5.00;5.00
50866;PMS7003;36839;51.946;21.002;2023-07-24T10:06:37;6.00;6.00;5.00
50866;PMS7003;36839;51.946;21.002;2023-07-24T10:09:07;3.00;3.00;3.00
50866;PMS7003;36839;51.946;21.002;2023-07-24T10:11:35;8.00;8.00;6.00
50866;PMS7003;36839;51.946;21.002;2023-07-24T10:16:32;8.00;5.00;4.00
50866;PMS7003;36839;51.946;21.002;2023-07-24T10:19:00;5.00;4.50;4.00
50866;PMS7003;36839;51.946;21.002;2023-07-24T10:21:29;7.50;4.50;4.00
50866;PMS7003;36839;51.946;21.002;2023-07-24T10:26:26;5.50;4.50;3.50
50866;PMS7003;36839;51.946;21.002;2023-07-24T10:28:54;8.00;8.00;5.00
50866;PMS7003;36839;51.946;21.002;2023-07-24T10:31:25;7.00;6.00;5.00
50866;PMS7003;36839;51.946;21.002;2023-07-24T10:33:54;8.50;6.00;5.00
50866;PMS7003;36839;51.946;21.002;2023-07-24T10:36:24;7.00;6.00;4.00
50866;PMS7003;36839;51.946;21.002;2023-07-24T10:38:56;6.00;6.00;4.00
50866;PMS7003;36839;51.946;21.002;2023-07-24T10:41:36;8.00;6.00;4.00
50866;PMS7003;36839;51.946;21.002;2023-07-24T10:44:04;6.00;4.00;4.00
50866;PMS7003;36839;51.946;21.002;2023-07-24T10:46:38;5.50;5.50;4.00
50866;PMS7003;36839;51.946;21.002;2023-07-24T10:49:11;7.00;5.00;4.00
50866;PMS7003;36839;51.946;21.002;2023-07-24T10:51:38;6.00;6.00;4.00
50866;PMS7003;36839;51.946;21.002;2023-07-24T10:54:05;7.00;7.00;4.50
50866;PMS7003;36839;51.946;21.002;2023-07-24T10:59:06;5.00;4.00;4.00
50866;PMS7003;36839;51.946;21.002;2023-07-24T11:01:35;8.50;6.50;5.00
50866;PMS7003;36839;51.946;21.002;2023-07-24T11:04:09;5.00;5.00;4.00
50866;PMS7003;36839;51.946;21.002;2023-07-24T11:06:42;5.50;5.50;4.50
50866;PMS7003;36839;51.946;21.002;2023-07-24T11:09:13;9.00;5.50;4.50
50866;PMS7003;36839;51.946;21.002;2023-07-24T11:11:41;6.00;6.00;4.00
50866;PMS7003;36839;51.946;21.002;2023-07-24T11:14:13;6.00;5.00;4.00
50866;PMS7003;36839;51.946;21.002;2023-07-24T11:16:49;4.50;4.50;4.00
50866;PMS7003;36839;51.946;21.002;2023-07-24T11:19:26;6.00;6.00;4.00
50866;PMS7003;36839;51.946;21.002;2023-07-24T11:21:55;7.00;5.00;4.00
50866;PMS7003;36839;51.946;21.002;2023-07-24T11:24:27;6.00;4.50;3.50
50866;PMS7003;36839;51.946;21.002;2023-07-24T11:26:56;6.00;5.50;4.50
50866;PMS7003;36839;51.946;21.002;2023-07-24T11:29:23;5.00;5.00;4.00
50866;PMS7003;36839;51.946;21.002;2023-07-24T11:31:55;9.00;7.50;6.00
50866;PMS7003;36839;51.946;21.002;2023-07-24T11:34:25;6.50;5.50;4.50
50866;PMS7003;36839;51.946;21.002;2023-07-24T11:36:53;6.00;6.00;4.00
50866;PMS7003;36839;51.946;21.002;2023-07-24T11:39:24;7.50;5.50;5.00
50866;PMS7003;36839;51.946;21.002;2023-07-24T11:41:53;8.00;6.00;5.00
50866;PMS7003;36839;51.946;21.002;2023-07-24T11:44:24;6.00;6.00;5.00
50866;PMS7003;36839;51.946;21.002;2023-07-24T11:47:04;5.00;5.00;4.50
50866;PMS7003;36839;51.946;21.002;2023-07-24T11:49:32;11.00;6.00;5.00
50866;PMS7003;36839;51.946;21.002;2023-07-24T11:52:04;9.00;6.00;4.00
50866;PMS7003;36839;51.946;21.002;2023-07-24T11:54:34;4.50;4.50;4.00
50866;PMS7003;36839;51.946;21.002;2023-07-24T11:57:14;7.00;6.00;5.00
50866;PMS7003;36839;51.946;21.002;2023-07-24T11:59:44;8.00;5.00;5.00
50866;PMS7003;36839;51.946;21.002;2023-07-24T12:02:14;7.00;6.00;5.00
50866;PMS7003;36839;51.946;21.002;2023-07-24T12:04:43;4.00;4.00;3.00
50866;PMS7003;36839;51.946;21.002;2023-07-24T12:07:34;5.00;5.00;3.00
50866;PMS7003;36839;51.946;21.002;2023-07-24T12:10:04;5.00;5.00;4.00
50866;PMS7003;36839;51.946;21.002;2023-07-24T12:12:41;8.00;6.00;5.00
50866;PMS7003;36839;51.946;21.002;2023-07-24T12:15:12;5.50;5.50;5.00
50866;PMS7003;36839;51.946;21.002;2023-07-24T12:20:20;6.00;5.00;5.00
50866;PMS7003;36839;51.946;21.002;2023-07-24T12:22:59;10.00;7.00;4.00
50866;PMS7003;36839;51.946;21.002;2023-07-24T12:25:35;9.00;5.00;4.50
50866;PMS7003;36839;51.946;21.002;2023-07-24T12:28:03;6.00;5.00;4.00
50866;PMS7003;36839;51.946;21.002;2023-07-24T12:30:30;6.00;6.00;5.00
50866;PMS7003;36839;51.946;21.002;2023-07-24T12:33:00;7.00;7.00;5.00
50866;PMS7003;36839;51.946;21.002;2023-07-24T12:35:33;8.50;6.00;4.50
50866;PMS7003;36839;51.946;21.002;2023-07-24T12:38:01;7.00;6.00;5.00
50866;PMS7003;36839;51.946;21.002;2023-07-24T12:40:28;6.00;6.00;4.50
50866;PMS7003;36839;51.946;21.002;2023-07-24T12:43:01;5.50;5.50;4.00
50866;PMS7003;36839;51.946;21.002;2023-07-24T12:45:28;5.00;5.00;4.00
50866;PMS7003;36839;51.946;21.002;2023-07-24T12:47:58;6.00;6.00;4.00
50866;PMS7003;36839;51.946;21.002;2023-07-24T12:50:32;7.00;7.00;6.00
50866;PMS7003;36839;51.946;21.002;2023-07-24T12:53:02;5.00;4.00;3.00
50866;PMS7003;36839;51.946;21.002;2023-07-24T12:55:32;6.00;6.00;5.00
50866;PMS7003;36839;51.946;21.002;2023-07-24T12:58:01;7.00;5.00;5.00
50866;PMS7003;36839;51.946;21.002;2023-07-24T13:00:32;7.00;5.00;4.00
50866;PMS7003;36839;51.946;21.002;2023-07-24T13:03:00;5.00;5.00;3.00
50866;PMS7003;36839;51.946;21.002;2023-07-24T13:05:28;6.50;5.00;4.50
50866;PMS7003;36839;51.946;21.002;2023-07-24T13:08:03;5.00;4.00;3.00
50866;PMS7003;36839;51.946;21.002;2023-07-24T13:10:31;7.00;6.00;5.00
50866;PMS7003;36839;51.946;21.002;2023-07-24T13:12:59;9.50;6.50;5.50
50866;PMS7003;36839;51.946;21.002;2023-07-24T13:15:33;7.00;6.00;4.00
50866;PMS7003;36839;51.946;21.002;2023-07-24T13:18:02;5.00;5.00;5.00
50866;PMS7003;36839;51.946;21.002;2023-07-24T13:20:40;5.00;5.00;3.50
50866;PMS7003;36839;51.946;21.002;2023-07-24T13:23:14;6.00;6.00;4.00
50866;PMS7003;36839;51.946;21.002;2023-07-24T13:25:43;6.50;5.00;4.00
50866;PMS7003;36839;51.946;21.002;2023-07-24T13:28:11;8.00;7.00;5.00
50866;PMS7003;36839;51.946;21.002;2023-07-24T13:30:40;6.00;6.00;4.00
50866;PMS7003;36839;51.946;21.002;2023-07-24T13:35:38;7.50;6.00;5.50
50866;PMS7003;36839;51.946;21.002;2023-07-24T13:38:06;7.50;7.50;6.50
50866;PMS7003;36839;51.946;21.002;2023-07-24T13:40:35;7.00;7.00;5.00
50866;PMS7003;36839;51.946;21.002;2023-07-24T13:43:07;5.50;5.50;4.00
50866;PMS7003;36839;51.946;21.002;2023-07-24T13:45:40;4.50;4.50;4.50
50866;PMS7003;36839;51.946;21.002;2023-07-24T13:50:37;7.50;6.50;4.50
50866;PMS7003;36839;51.946;21.002;2023-07-24T13:53:16;5.00;5.00;4.00
50866;PMS7003;36839;51.946;21.002;2023-07-24T13:55:43;4.00;3.00;2.00
50866;PMS7003;36839;51.946;21.002;2023-07-24T13:58:14;5.50;5.50;4.00
50866;PMS7003;36839;51.946;21.002;2023-07-24T14:00:46;6.00;5.00;3.50
50866;PMS7003;36839;51.946;21.002;2023-07-24T14:03:14;6.00;6.00;5.00
50866;PMS7003;36839;51.946;21.002;2023-07-24T14:05:45;5.00;5.00;4.00
50866;PMS7003;36839;51.946;21.002;2023-07-24T14:08:17;9.00;7.00;5.00
50866;PMS7003;36839;51.946;21.002;2023-07-24T14:10:45;6.50;6.50;5.00
50866;PMS7003;36839;51.946;21.002;2023-07-24T14:13:16;9.00;6.00;5.50
50866;PMS7003;36839;51.946;21.002;2023-07-24T14:15:47;6.00;5.00;5.00
50866;PMS7003;36839;51.946;21.002;2023-07-24T14:18:17;6.33;5.00;3.67
50866;PMS7003;36839;51.946;21.002;2023-07-24T14:20:45;8.00;5.00;4.00
50866;PMS7003;36839;51.946;21.002;2023-07-24T14:23:14;4.50;4.50;4.00
50866;PMS7003;36839;51.946;21.002;2023-07-24T14:25:41;5.00;5.00;3.00
50866;PMS7003;36839;51.946;21.002;2023-07-24T14:28:10;6.00;6.00;5.00
50866;PMS7003;36839;51.946;21.002;2023-07-24T14:30:40;6.00;5.00;4.00
50866;PMS7003;36839;51.946;21.002;2023-07-24T14:33:11;8.00;6.00;5.00
50866;PMS7003;36839;51.946;21.002;2023-07-24T14:35:43;8.00;6.00;4.00
50866;PMS7003;36839;51.946;21.002;2023-07-24T14:38:18;8.00;6.00;5.00
50866;PMS7003;36839;51.946;21.002;2023-07-24T14:40:50;9.00;6.00;5.00
50866;PMS7003;36839;51.946;21.002;2023-07-24T14:43:23;6.33;6.33;5.00
50866;PMS7003;36839;51.946;21.002;2023-07-24T14:46:03;9.00;7.50;5.50
50866;PMS7003;36839;51.946;21.002;2023-07-24T14:48:31;7.00;7.00;6.00
50866;PMS7003;36839;51.946;21.002;2023-07-24T14:51:01;8.00;8.00;6.00
50866;PMS7003;36839;51.946;21.002;2023-07-24T14:53:33;7.00;6.00;5.00
50866;PMS7003;36839;51.946;21.002;2023-07-24T14:56:04;6.50;5.50;4.00